sensor_id;sensor_type;location;lat;lon;timestamp;P1;durP1;ratioP1;P2;durP2;ratioP2
20008;SDS011;10165;42.662;23.260;2023-05-07T00:01:22;6.90;;;4.80;;
20008;SDS011;10165;42.662;23.260;2023-05-07T00:03:48;7.00;;;4.90;;
20008;SDS011;10165;42.662;23.260;2023-05-07T00:06:16;5.80;;;4.60;;
20008;SDS011;10165;42.662;23.260;2023-05-07T00:08:43;10.53;;;4.60;;
20008;SDS011;10165;42.662;23.260;2023-05-07T00:11:10;6.33;;;4.87;;
20008;SDS011;10165;42.662;23.260;2023-05-07T00:13:36;10.27;;;4.80;;
20008;SDS011;10165;42.662;23.260;2023-05-07T00:16:03;7.00;;;4.57;;
20008;SDS011;10165;42.662;23.260;2023-05-07T00:18:31;7.67;;;5.40;;
20008;SDS011;10165;42.662;23.260;2023-05-07T00:20:57;10.03;;;5.30;;
20008;SDS011;10165;42.662;23.260;2023-05-07T00:23:24;7.40;;;4.47;;
20008;SDS011;10165;42.662;23.260;2023-05-07T00:25:51;8.93;;;4.70;;
20008;SDS011;10165;42.662;23.260;2023-05-07T00:28:17;5.73;;;4.10;;
20008;SDS011;10165;42.662;23.260;2023-05-07T00:30:44;5.73;;;4.47;;
20008;SDS011;10165;42.662;23.260;2023-05-07T00:33:11;9.00;;;4.20;;
20008;SDS011;10165;42.662;23.260;2023-05-07T00:35:37;6.73;;;3.77;;
20008;SDS011;10165;42.662;23.260;2023-05-07T00:38:04;5.73;;;4.27;;
20008;SDS011;10165;42.662;23.260;2023-05-07T00:40:32;9.10;;;4.80;;
20008;SDS011;10165;42.662;23.260;2023-05-07T00:42:59;6.90;;;4.43;;
20008;SDS011;10165;42.662;23.260;2023-05-07T00:45:26;6.13;;;4.20;;
20008;SDS011;10165;42.662;23.260;2023-05-07T00:47:58;6.17;;;3.93;;
20008;SDS011;10165;42.662;23.260;2023-05-07T00:50:27;5.17;;;3.70;;
20008;SDS011;10165;42.662;23.260;2023-05-07T00:52:54;11.93;;;4.20;;
20008;SDS011;10165;42.662;23.260;2023-05-07T00:55:22;5.33;;;3.93;;
20008;SDS011;10165;42.662;23.260;2023-05-07T00:57:50;4.73;;;3.77;;
20008;SDS011;10165;42.662;23.260;2023-05-07T01:00:17;5.40;;;4.00;;
20008;SDS011;10165;42.662;23.260;2023-05-07T01:02:44;5.10;;;3.93;;
20008;SDS011;10165;42.662;23.260;2023-05-07T01:05:14;5.30;;;3.53;;
20008;SDS011;10165;42.662;23.260;2023-05-07T01:07:44;6.73;;;3.87;;
20008;SDS011;10165;42.662;23.260;2023-05-07T01:10:11;10.47;;;3.80;;
20008;SDS011;10165;42.662;23.260;2023-05-07T01:12:39;4.50;;;3.93;;
20008;SDS011;10165;42.662;23.260;2023-05-07T01:15:07;5.70;;;3.87;;
20008;SDS011;10165;42.662;23.260;2023-05-07T01:17:36;5.80;;;4.00;;
20008;SDS011;10165;42.662;23.260;2023-05-07T01:20:04;4.80;;;3.77;;
20008;SDS011;10165;42.662;23.260;2023-05-07T01:22:34;5.33;;;4.10;;
20008;SDS011;10165;42.662;23.260;2023-05-07T01:25:03;6.37;;;4.00;;
20008;SDS011;10165;42.662;23.260;2023-05-07T01:27:30;6.30;;;4.10;;
20008;SDS011;10165;42.662;23.260;2023-05-07T01:29:59;5.83;;;4.40;;
20008;SDS011;10165;42.662;23.260;2023-05-07T01:32:31;8.33;;;4.27;;
20008;SDS011;10165;42.662;23.260;2023-05-07T01:35:02;5.67;;;4.40;;
20008;SDS011;10165;42.662;23.260;2023-05-07T01:37:31;5.67;;;4.30;;
20008;SDS011;10165;42.662;23.260;2023-05-07T01:39:58;7.60;;;4.57;;
20008;SDS011;10165;42.662;23.260;2023-05-07T01:42:27;5.67;;;5.07;;
20008;SDS011;10165;42.662;23.260;2023-05-07T01:44:55;11.37;;;4.83;;
20008;SDS011;10165;42.662;23.260;2023-05-07T01:47:22;6.87;;;5.50;;
20008;SDS011;10165;42.662;23.260;2023-05-07T01:49:50;8.63;;;4.80;;
20008;SDS011;10165;42.662;23.260;2023-05-07T01:52:17;6.47;;;4.47;;
20008;SDS011;10165;42.662;23.260;2023-05-07T01:54:43;8.10;;;4.93;;
20008;SDS011;10165;42.662;23.260;2023-05-07T01:57:10;6.07;;;4.60;;
20008;SDS011;10165;42.662;23.260;2023-05-07T01:59:37;7.00;;;3.97;;
20008;SDS011;10165;42.662;23.260;2023-05-07T02:02:04;5.43;;;4.40;;
20008;SDS011;10165;42.662;23.260;2023-05-07T02:04:31;6.53;;;3.33;;
20008;SDS011;10165;42.662;23.260;2023-05-07T02:06:57;5.23;;;3.30;;
20008;SDS011;10165;42.662;23.260;2023-05-07T02:09:24;7.97;;;3.63;;
20008;SDS011;10165;42.662;23.260;2023-05-07T02:11:51;4.83;;;4.03;;
20008;SDS011;10165;42.662;23.260;2023-05-07T02:14:17;5.07;;;3.90;;
20008;SDS011;10165;42.662;23.260;2023-05-07T02:16:44;5.70;;;3.47;;
20008;SDS011;10165;42.662;23.260;2023-05-07T02:19:11;5.70;;;3.70;;
20008;SDS011;10165;42.662;23.260;2023-05-07T02:21:37;5.33;;;3.80;;
20008;SDS011;10165;42.662;23.260;2023-05-07T02:24:04;6.50;;;3.63;;
20008;SDS011;10165;42.662;23.260;2023-05-07T02:26:31;4.40;;;3.43;;
20008;SDS011;10165;42.662;23.260;2023-05-07T02:28:58;3.87;;;3.27;;
20008;SDS011;10165;42.662;23.260;2023-05-07T02:31:24;5.33;;;4.30;;
20008;SDS011;10165;42.662;23.260;2023-05-07T02:33:51;6.43;;;3.37;;
20008;SDS011;10165;42.662;23.260;2023-05-07T02:36:18;4.07;;;3.67;;
20008;SDS011;10165;42.662;23.260;2023-05-07T02:38:44;4.17;;;3.77;;
20008;SDS011;10165;42.662;23.260;2023-05-07T02:41:11;3.67;;;3.27;;
20008;SDS011;10165;42.662;23.260;2023-05-07T02:43:38;4.90;;;3.70;;
20008;SDS011;10165;42.662;23.260;2023-05-07T02:46:05;5.17;;;3.27;;
20008;SDS011;10165;42.662;23.260;2023-05-07T02:48:33;5.67;;;3.97;;
20008;SDS011;10165;42.662;23.260;2023-05-07T02:51:00;9.13;;;3.97;;
20008;SDS011;10165;42.662;23.260;2023-05-07T02:53:28;4.57;;;3.77;;
20008;SDS011;10165;42.662;23.260;2023-05-07T02:55:56;6.27;;;3.50;;
20008;SDS011;10165;42.662;23.260;2023-05-07T02:58:23;4.90;;;3.77;;
20008;SDS011;10165;42.662;23.260;2023-05-07T03:00:50;7.23;;;4.60;;
20008;SDS011;10165;42.662;23.260;2023-05-07T03:03:17;3.97;;;3.57;;
20008;SDS011;10165;42.662;23.260;2023-05-07T03:05:44;4.47;;;3.43;;
20008;SDS011;10165;42.662;23.260;2023-05-07T03:08:11;4.80;;;4.10;;
20008;SDS011;10165;42.662;23.260;2023-05-07T03:10:37;7.23;;;3.90;;
20008;SDS011;10165;42.662;23.260;2023-05-07T03:13:04;6.97;;;4.10;;
20008;SDS011;10165;42.662;23.260;2023-05-07T03:15:31;8.57;;;5.13;;
20008;SDS011;10165;42.662;23.260;2023-05-07T03:17:58;7.83;;;4.60;;
20008;SDS011;10165;42.662;23.260;2023-05-07T03:20:25;6.23;;;4.53;;
20008;SDS011;10165;42.662;23.260;2023-05-07T03:22:51;7.53;;;4.63;;
20008;SDS011;10165;42.662;23.260;2023-05-07T03:25:18;7.30;;;4.80;;
20008;SDS011;10165;42.662;23.260;2023-05-07T03:27:45;8.80;;;4.87;;
20008;SDS011;10165;42.662;23.260;2023-05-07T03:30:12;5.73;;;4.93;;
20008;SDS011;10165;42.662;23.260;2023-05-07T03:32:39;7.60;;;4.63;;
20008;SDS011;10165;42.662;23.260;2023-05-07T03:35:06;9.67;;;4.97;;
20008;SDS011;10165;42.662;23.260;2023-05-07T03:37:33;8.07;;;5.00;;
20008;SDS011;10165;42.662;23.260;2023-05-07T03:40:00;7.30;;;4.93;;
20008;SDS011;10165;42.662;23.260;2023-05-07T03:42:26;6.23;;;5.00;;
20008;SDS011;10165;42.662;23.260;2023-05-07T03:44:54;9.20;;;4.53;;
20008;SDS011;10165;42.662;23.260;2023-05-07T03:47:21;6.63;;;5.00;;
20008;SDS011;10165;42.662;23.260;2023-05-07T03:49:48;9.97;;;5.07;;
20008;SDS011;10165;42.662;23.260;2023-05-07T03:52:15;5.67;;;4.90;;
20008;SDS011;10165;42.662;23.260;2023-05-07T03:54:42;5.77;;;4.33;;
20008;SDS011;10165;42.662;23.260;2023-05-07T03:57:08;9.33;;;4.50;;
20008;SDS011;10165;42.662;23.260;2023-05-07T03:59:35;4.60;;;4.20;;
20008;SDS011;10165;42.662;23.260;2023-05-07T04:02:02;8.10;;;4.70;;
20008;SDS011;10165;42.662;23.260;2023-05-07T04:04:31;7.00;;;4.90;;
20008;SDS011;10165;42.662;23.260;2023-05-07T04:06:59;9.07;;;5.23;;
20008;SDS011;10165;42.662;23.260;2023-05-07T04:09:26;10.30;;;5.37;;
20008;SDS011;10165;42.662;23.260;2023-05-07T04:11:53;8.30;;;4.57;;
20008;SDS011;10165;42.662;23.260;2023-05-07T04:14:20;5.83;;;4.53;;
20008;SDS011;10165;42.662;23.260;2023-05-07T04:16:46;8.30;;;4.90;;
20008;SDS011;10165;42.662;23.260;2023-05-07T04:19:13;8.40;;;5.20;;
20008;SDS011;10165;42.662;23.260;2023-05-07T04:21:40;5.40;;;4.57;;
20008;SDS011;10165;42.662;23.260;2023-05-07T04:24:06;9.07;;;5.33;;
20008;SDS011;10165;42.662;23.260;2023-05-07T04:26:33;6.40;;;5.00;;
20008;SDS011;10165;42.662;23.260;2023-05-07T04:29:00;13.43;;;5.10;;
20008;SDS011;10165;42.662;23.260;2023-05-07T04:31:27;6.93;;;4.93;;
20008;SDS011;10165;42.662;23.260;2023-05-07T04:33:53;6.00;;;5.10;;
20008;SDS011;10165;42.662;23.260;2023-05-07T04:36:20;10.80;;;4.33;;
20008;SDS011;10165;42.662;23.260;2023-05-07T04:38:47;5.33;;;4.20;;
20008;SDS011;10165;42.662;23.260;2023-05-07T04:41:14;6.60;;;4.40;;
20008;SDS011;10165;42.662;23.260;2023-05-07T04:43:41;8.33;;;4.10;;
20008;SDS011;10165;42.662;23.260;2023-05-07T04:46:08;5.33;;;4.20;;
20008;SDS011;10165;42.662;23.260;2023-05-07T04:48:34;6.33;;;4.70;;
20008;SDS011;10165;42.662;23.260;2023-05-07T04:51:01;5.97;;;4.13;;
20008;SDS011;10165;42.662;23.260;2023-05-07T04:53:28;7.67;;;5.50;;
20008;SDS011;10165;42.662;23.260;2023-05-07T04:55:56;7.13;;;5.47;;
20008;SDS011;10165;42.662;23.260;2023-05-07T04:58:25;8.93;;;6.00;;
20008;SDS011;10165;42.662;23.260;2023-05-07T05:00:52;10.47;;;6.00;;
20008;SDS011;10165;42.662;23.260;2023-05-07T05:03:19;7.43;;;5.37;;
20008;SDS011;10165;42.662;23.260;2023-05-07T05:05:45;8.00;;;5.43;;
20008;SDS011;10165;42.662;23.260;2023-05-07T05:08:12;8.63;;;5.73;;
20008;SDS011;10165;42.662;23.260;2023-05-07T05:10:39;11.03;;;5.93;;
20008;SDS011;10165;42.662;23.260;2023-05-07T05:13:07;8.10;;;5.83;;
20008;SDS011;10165;42.662;23.260;2023-05-07T05:15:34;5.43;;;4.63;;
20008;SDS011;10165;42.662;23.260;2023-05-07T05:18:01;7.07;;;5.57;;
20008;SDS011;10165;42.662;23.260;2023-05-07T05:20:28;7.53;;;5.23;;
20008;SDS011;10165;42.662;23.260;2023-05-07T05:22:54;15.53;;;6.80;;
20008;SDS011;10165;42.662;23.260;2023-05-07T05:25:21;11.80;;;6.27;;
20008;SDS011;10165;42.662;23.260;2023-05-07T05:27:48;8.57;;;6.07;;
20008;SDS011;10165;42.662;23.260;2023-05-07T05:30:14;10.23;;;6.37;;
20008;SDS011;10165;42.662;23.260;2023-05-07T05:32:41;9.47;;;5.97;;
20008;SDS011;10165;42.662;23.260;2023-05-07T05:35:08;11.47;;;6.67;;
20008;SDS011;10165;42.662;23.260;2023-05-07T05:37:34;13.13;;;6.40;;
20008;SDS011;10165;42.662;23.260;2023-05-07T05:40:01;8.60;;;6.53;;
20008;SDS011;10165;42.662;23.260;2023-05-07T05:42:28;10.83;;;6.47;;
20008;SDS011;10165;42.662;23.260;2023-05-07T05:44:55;6.53;;;5.80;;
20008;SDS011;10165;42.662;23.260;2023-05-07T05:47:22;8.70;;;5.70;;
20008;SDS011;10165;42.662;23.260;2023-05-07T05:49:49;8.23;;;5.70;;
20008;SDS011;10165;42.662;23.260;2023-05-07T05:52:15;8.00;;;5.70;;
20008;SDS011;10165;42.662;23.260;2023-05-07T05:54:43;7.70;;;5.77;;
20008;SDS011;10165;42.662;23.260;2023-05-07T05:57:10;9.97;;;5.97;;
20008;SDS011;10165;42.662;23.260;2023-05-07T05:59:37;7.67;;;5.27;;
20008;SDS011;10165;42.662;23.260;2023-05-07T06:02:03;8.03;;;5.70;;
20008;SDS011;10165;42.662;23.260;2023-05-07T06:04:30;10.47;;;5.87;;
20008;SDS011;10165;42.662;23.260;2023-05-07T06:06:57;8.90;;;5.57;;
20008;SDS011;10165;42.662;23.260;2023-05-07T06:09:23;9.33;;;5.67;;
20008;SDS011;10165;42.662;23.260;2023-05-07T06:11:50;8.77;;;6.07;;
20008;SDS011;10165;42.662;23.260;2023-05-07T06:14:17;9.90;;;6.10;;
20008;SDS011;10165;42.662;23.260;2023-05-07T06:16:44;6.33;;;5.37;;
20008;SDS011;10165;42.662;23.260;2023-05-07T06:19:11;11.10;;;5.83;;
20008;SDS011;10165;42.662;23.260;2023-05-07T06:21:38;8.13;;;5.57;;
20008;SDS011;10165;42.662;23.260;2023-05-07T06:24:05;8.30;;;5.50;;
20008;SDS011;10165;42.662;23.260;2023-05-07T06:26:32;6.40;;;5.33;;
20008;SDS011;10165;42.662;23.260;2023-05-07T06:28:59;7.23;;;5.10;;
20008;SDS011;10165;42.662;23.260;2023-05-07T06:31:29;7.00;;;5.00;;
20008;SDS011;10165;42.662;23.260;2023-05-07T06:33:57;8.40;;;5.50;;
20008;SDS011;10165;42.662;23.260;2023-05-07T06:36:25;7.60;;;5.27;;
20008;SDS011;10165;42.662;23.260;2023-05-07T06:38:52;7.60;;;5.57;;
20008;SDS011;10165;42.662;23.260;2023-05-07T06:41:19;8.70;;;5.70;;
20008;SDS011;10165;42.662;23.260;2023-05-07T06:43:46;7.57;;;5.77;;
20008;SDS011;10165;42.662;23.260;2023-05-07T06:46:13;7.07;;;5.60;;
20008;SDS011;10165;42.662;23.260;2023-05-07T06:48:40;8.73;;;5.43;;
20008;SDS011;10165;42.662;23.260;2023-05-07T06:51:06;10.53;;;5.40;;
20008;SDS011;10165;42.662;23.260;2023-05-07T06:53:33;9.30;;;5.27;;
20008;SDS011;10165;42.662;23.260;2023-05-07T06:56:01;9.13;;;5.63;;
20008;SDS011;10165;42.662;23.260;2023-05-07T06:58:28;7.30;;;5.60;;
20008;SDS011;10165;42.662;23.260;2023-05-07T07:00:56;7.77;;;4.93;;
20008;SDS011;10165;42.662;23.260;2023-05-07T07:03:22;7.53;;;5.07;;
20008;SDS011;10165;42.662;23.260;2023-05-07T07:05:53;6.80;;;5.17;;
20008;SDS011;10165;42.662;23.260;2023-05-07T07:08:20;8.63;;;4.83;;
20008;SDS011;10165;42.662;23.260;2023-05-07T07:10:48;8.07;;;5.40;;
20008;SDS011;10165;42.662;23.260;2023-05-07T07:13:14;7.97;;;5.10;;
20008;SDS011;10165;42.662;23.260;2023-05-07T07:15:42;8.40;;;4.97;;
20008;SDS011;10165;42.662;23.260;2023-05-07T07:18:09;6.83;;;4.37;;
20008;SDS011;10165;42.662;23.260;2023-05-07T07:20:36;8.37;;;4.77;;
20008;SDS011;10165;42.662;23.260;2023-05-07T07:23:03;7.43;;;4.97;;
20008;SDS011;10165;42.662;23.260;2023-05-07T07:25:29;11.67;;;5.63;;
20008;SDS011;10165;42.662;23.260;2023-05-07T07:27:56;9.13;;;5.13;;
20008;SDS011;10165;42.662;23.260;2023-05-07T07:30:23;8.83;;;5.00;;
20008;SDS011;10165;42.662;23.260;2023-05-07T07:32:52;5.83;;;4.87;;
20008;SDS011;10165;42.662;23.260;2023-05-07T07:35:19;11.47;;;4.27;;
20008;SDS011;10165;42.662;23.260;2023-05-07T07:37:46;6.23;;;5.07;;
20008;SDS011;10165;42.662;23.260;2023-05-07T07:40:14;6.40;;;5.07;;
20008;SDS011;10165;42.662;23.260;2023-05-07T07:42:41;9.50;;;4.53;;
20008;SDS011;10165;42.662;23.260;2023-05-07T07:45:07;5.57;;;4.50;;
20008;SDS011;10165;42.662;23.260;2023-05-07T07:47:34;6.03;;;4.20;;
20008;SDS011;10165;42.662;23.260;2023-05-07T07:50:01;5.07;;;3.70;;
20008;SDS011;10165;42.662;23.260;2023-05-07T07:52:28;5.50;;;3.83;;
20008;SDS011;10165;42.662;23.260;2023-05-07T07:54:54;7.50;;;4.97;;
20008;SDS011;10165;42.662;23.260;2023-05-07T07:57:21;7.53;;;4.40;;
20008;SDS011;10165;42.662;23.260;2023-05-07T07:59:48;7.87;;;3.83;;
20008;SDS011;10165;42.662;23.260;2023-05-07T08:02:15;5.97;;;3.97;;
20008;SDS011;10165;42.662;23.260;2023-05-07T08:04:42;8.80;;;5.67;;
20008;SDS011;10165;42.662;23.260;2023-05-07T08:07:12;6.77;;;5.07;;
20008;SDS011;10165;42.662;23.260;2023-05-07T08:09:39;6.00;;;4.57;;
20008;SDS011;10165;42.662;23.260;2023-05-07T08:12:07;6.90;;;5.40;;
20008;SDS011;10165;42.662;23.260;2023-05-07T08:14:34;10.27;;;4.90;;
20008;SDS011;10165;42.662;23.260;2023-05-07T08:17:02;10.57;;;4.63;;
20008;SDS011;10165;42.662;23.260;2023-05-07T08:19:29;11.27;;;4.93;;
20008;SDS011;10165;42.662;23.260;2023-05-07T08:21:56;6.70;;;3.93;;
20008;SDS011;10165;42.662;23.260;2023-05-07T08:24:22;7.00;;;4.50;;
20008;SDS011;10165;42.662;23.260;2023-05-07T08:26:49;5.33;;;4.20;;
20008;SDS011;10165;42.662;23.260;2023-05-07T08:29:16;6.50;;;4.53;;
20008;SDS011;10165;42.662;23.260;2023-05-07T08:31:42;6.67;;;4.70;;
20008;SDS011;10165;42.662;23.260;2023-05-07T08:34:09;6.47;;;4.80;;
20008;SDS011;10165;42.662;23.260;2023-05-07T08:36:36;7.97;;;4.97;;
20008;SDS011;10165;42.662;23.260;2023-05-07T08:39:02;15.37;;;5.70;;
20008;SDS011;10165;42.662;23.260;2023-05-07T08:41:29;6.10;;;4.87;;
20008;SDS011;10165;42.662;23.260;2023-05-07T08:43:58;7.33;;;4.90;;
20008;SDS011;10165;42.662;23.260;2023-05-07T08:46:27;7.00;;;4.77;;
20008;SDS011;10165;42.662;23.260;2023-05-07T08:48:58;6.53;;;4.80;;
20008;SDS011;10165;42.662;23.260;2023-05-07T08:51:25;4.50;;;4.07;;
20008;SDS011;10165;42.662;23.260;2023-05-07T08:53:52;6.97;;;4.50;;
20008;SDS011;10165;42.662;23.260;2023-05-07T08:56:18;6.43;;;5.07;;
20008;SDS011;10165;42.662;23.260;2023-05-07T08:58:47;5.53;;;4.70;;
20008;SDS011;10165;42.662;23.260;2023-05-07T09:01:15;7.63;;;5.07;;
20008;SDS011;10165;42.662;23.260;2023-05-07T09:03:46;6.73;;;4.83;;
20008;SDS011;10165;42.662;23.260;2023-05-07T09:06:13;5.20;;;4.20;;
20008;SDS011;10165;42.662;23.260;2023-05-07T09:08:40;5.23;;;4.23;;
20008;SDS011;10165;42.662;23.260;2023-05-07T09:11:07;5.33;;;4.40;;
20008;SDS011;10165;42.662;23.260;2023-05-07T09:13:33;4.23;;;3.80;;
20008;SDS011;10165;42.662;23.260;2023-05-07T09:16:09;5.17;;;4.50;;
20008;SDS011;10165;42.662;23.260;2023-05-07T09:18:41;6.70;;;4.80;;
20008;SDS011;10165;42.662;23.260;2023-05-07T09:21:14;7.27;;;4.87;;
20008;SDS011;10165;42.662;23.260;2023-05-07T09:23:42;4.00;;;3.40;;
20008;SDS011;10165;42.662;23.260;2023-05-07T09:26:09;4.50;;;3.20;;
20008;SDS011;10165;42.662;23.260;2023-05-07T09:28:41;5.90;;;2.83;;
20008;SDS011;10165;42.662;23.260;2023-05-07T09:31:08;5.47;;;3.67;;
20008;SDS011;10165;42.662;23.260;2023-05-07T09:33:36;6.33;;;3.97;;
20008;SDS011;10165;42.662;23.260;2023-05-07T09:36:07;4.03;;;3.40;;
20008;SDS011;10165;42.662;23.260;2023-05-07T09:38:36;5.33;;;2.80;;
20008;SDS011;10165;42.662;23.260;2023-05-07T09:41:10;5.13;;;3.27;;
20008;SDS011;10165;42.662;23.260;2023-05-07T09:43:38;3.67;;;3.37;;
20008;SDS011;10165;42.662;23.260;2023-05-07T09:46:13;6.17;;;4.27;;
20008;SDS011;10165;42.662;23.260;2023-05-07T09:48:42;4.50;;;4.10;;
20008;SDS011;10165;42.662;23.260;2023-05-07T09:51:13;5.70;;;4.30;;
20008;SDS011;10165;42.662;23.260;2023-05-07T09:53:44;6.23;;;4.13;;
20008;SDS011;10165;42.662;23.260;2023-05-07T09:56:13;5.73;;;3.87;;
20008;SDS011;10165;42.662;23.260;2023-05-07T09:58:41;4.43;;;3.60;;
20008;SDS011;10165;42.662;23.260;2023-05-07T10:01:10;8.90;;;4.37;;
20008;SDS011;10165;42.662;23.260;2023-05-07T10:03:41;5.30;;;3.63;;
20008;SDS011;10165;42.662;23.260;2023-05-07T10:06:09;3.80;;;3.40;;
20008;SDS011;10165;42.662;23.260;2023-05-07T10:08:37;5.80;;;3.40;;
20008;SDS011;10165;42.662;23.260;2023-05-07T10:11:04;5.33;;;2.83;;
20008;SDS011;10165;42.662;23.260;2023-05-07T10:13:34;6.40;;;3.80;;
20008;SDS011;10165;42.662;23.260;2023-05-07T10:16:03;6.07;;;3.47;;
20008;SDS011;10165;42.662;23.260;2023-05-07T10:18:33;6.23;;;3.23;;
20008;SDS011;10165;42.662;23.260;2023-05-07T10:24:19;3.33;;;3.03;;
20008;SDS011;10165;42.662;23.260;2023-05-07T10:26:49;4.70;;;3.23;;
20008;SDS011;10165;42.662;23.260;2023-05-07T10:29:21;5.53;;;2.90;;
20008;SDS011;10165;42.662;23.260;2023-05-07T10:32:10;4.93;;;3.33;;
20008;SDS011;10165;42.662;23.260;2023-05-07T10:34:48;7.43;;;3.40;;
20008;SDS011;10165;42.662;23.260;2023-05-07T10:37:19;4.87;;;2.97;;
20008;SDS011;10165;42.662;23.260;2023-05-07T10:39:46;3.90;;;2.70;;
20008;SDS011;10165;42.662;23.260;2023-05-07T10:42:13;3.27;;;2.97;;
20008;SDS011;10165;42.662;23.260;2023-05-07T10:44:41;3.37;;;2.97;;
20008;SDS011;10165;42.662;23.260;2023-05-07T10:47:11;5.50;;;3.10;;
20008;SDS011;10165;42.662;23.260;2023-05-07T10:52:15;3.27;;;2.97;;
20008;SDS011;10165;42.662;23.260;2023-05-07T10:54:44;3.87;;;3.00;;
20008;SDS011;10165;42.662;23.260;2023-05-07T11:03:04;5.73;;;3.30;;
20008;SDS011;10165;42.662;23.260;2023-05-07T11:05:33;3.47;;;3.17;;
20008;SDS011;10165;42.662;23.260;2023-05-07T11:08:04;3.60;;;2.90;;
20008;SDS011;10165;42.662;23.260;2023-05-07T11:13:16;3.23;;;2.80;;
20008;SDS011;10165;42.662;23.260;2023-05-07T11:15:47;3.73;;;3.33;;
20008;SDS011;10165;42.662;23.260;2023-05-07T11:18:15;4.17;;;3.13;;
20008;SDS011;10165;42.662;23.260;2023-05-07T11:20:56;4.17;;;3.10;;
20008;SDS011;10165;42.662;23.260;2023-05-07T11:26:00;3.83;;;3.13;;
20008;SDS011;10165;42.662;23.260;2023-05-07T11:28:38;5.23;;;3.07;;
20008;SDS011;10165;42.662;23.260;2023-05-07T11:31:05;6.03;;;3.20;;
20008;SDS011;10165;42.662;23.260;2023-05-07T11:33:33;6.83;;;3.40;;
20008;SDS011;10165;42.662;23.260;2023-05-07T11:36:01;3.37;;;2.83;;
20008;SDS011;10165;42.662;23.260;2023-05-07T11:38:30;3.20;;;2.83;;
20008;SDS011;10165;42.662;23.260;2023-05-07T11:41:00;3.80;;;3.20;;
20008;SDS011;10165;42.662;23.260;2023-05-07T11:43:28;3.53;;;2.97;;
20008;SDS011;10165;42.662;23.260;2023-05-07T11:46:04;4.80;;;3.30;;
20008;SDS011;10165;42.662;23.260;2023-05-07T11:48:31;3.23;;;2.93;;
20008;SDS011;10165;42.662;23.260;2023-05-07T11:53:25;3.77;;;2.90;;
20008;SDS011;10165;42.662;23.260;2023-05-07T11:55:53;3.80;;;2.90;;
20008;SDS011;10165;42.662;23.260;2023-05-07T11:58:22;4.77;;;3.20;;
20008;SDS011;10165;42.662;23.260;2023-05-07T12:00:50;4.90;;;3.33;;
20008;SDS011;10165;42.662;23.260;2023-05-07T12:03:17;5.13;;;3.20;;
20008;SDS011;10165;42.662;23.260;2023-05-07T12:05:47;3.50;;;3.20;;
20008;SDS011;10165;42.662;23.260;2023-05-07T12:08:17;4.20;;;3.00;;
20008;SDS011;10165;42.662;23.260;2023-05-07T12:10:45;4.70;;;2.93;;
20008;SDS011;10165;42.662;23.260;2023-05-07T12:13:16;3.13;;;2.80;;
20008;SDS011;10165;42.662;23.260;2023-05-07T12:15:44;3.17;;;2.80;;
20008;SDS011;10165;42.662;23.260;2023-05-07T12:18:11;5.60;;;3.00;;
20008;SDS011;10165;42.662;23.260;2023-05-07T12:20:38;6.17;;;2.87;;
20008;SDS011;10165;42.662;23.260;2023-05-07T12:23:06;5.00;;;3.00;;
20008;SDS011;10165;42.662;23.260;2023-05-07T12:25:36;3.10;;;2.90;;
20008;SDS011;10165;42.662;23.260;2023-05-07T12:28:04;4.90;;;3.20;;
20008;SDS011;10165;42.662;23.260;2023-05-07T12:30:32;7.37;;;3.33;;
20008;SDS011;10165;42.662;23.260;2023-05-07T12:33:03;4.50;;;3.57;;
20008;SDS011;10165;42.662;23.260;2023-05-07T12:35:30;3.67;;;3.37;;
20008;SDS011;10165;42.662;23.260;2023-05-07T12:37:58;6.60;;;3.07;;
20008;SDS011;10165;42.662;23.260;2023-05-07T12:40:49;6.87;;;2.80;;
20008;SDS011;10165;42.662;23.260;2023-05-07T12:43:26;4.03;;;2.67;;
20008;SDS011;10165;42.662;23.260;2023-05-07T12:45:54;3.47;;;2.73;;
20008;SDS011;10165;42.662;23.260;2023-05-07T12:48:23;4.60;;;2.87;;
20008;SDS011;10165;42.662;23.260;2023-05-07T12:50:53;4.03;;;2.80;;
20008;SDS011;10165;42.662;23.260;2023-05-07T12:53:22;4.67;;;3.00;;
20008;SDS011;10165;42.662;23.260;2023-05-07T12:55:51;2.97;;;2.40;;
20008;SDS011;10165;42.662;23.260;2023-05-07T12:58:24;5.93;;;3.00;;
20008;SDS011;10165;42.662;23.260;2023-05-07T13:00:55;3.43;;;2.80;;
20008;SDS011;10165;42.662;23.260;2023-05-07T13:05:57;5.03;;;2.70;;
20008;SDS011;10165;42.662;23.260;2023-05-07T13:08:26;3.53;;;2.50;;
20008;SDS011;10165;42.662;23.260;2023-05-07T13:10:56;6.83;;;2.90;;
20008;SDS011;10165;42.662;23.260;2023-05-07T13:13:24;10.40;;;2.67;;
20008;SDS011;10165;42.662;23.260;2023-05-07T13:15:51;2.87;;;2.50;;
20008;SDS011;10165;42.662;23.260;2023-05-07T13:18:18;5.93;;;2.80;;
20008;SDS011;10165;42.662;23.260;2023-05-07T13:20:45;3.27;;;2.53;;
20008;SDS011;10165;42.662;23.260;2023-05-07T13:23:11;4.43;;;2.60;;
20008;SDS011;10165;42.662;23.260;2023-05-07T13:25:38;8.57;;;3.07;;
20008;SDS011;10165;42.662;23.260;2023-05-07T13:28:05;4.03;;;2.30;;
20008;SDS011;10165;42.662;23.260;2023-05-07T13:30:36;3.60;;;2.60;;
20008;SDS011;10165;42.662;23.260;2023-05-07T13:33:03;4.10;;;2.33;;
20008;SDS011;10165;42.662;23.260;2023-05-07T13:35:30;3.00;;;2.70;;
20008;SDS011;10165;42.662;23.260;2023-05-07T13:37:57;3.77;;;3.03;;
20008;SDS011;10165;42.662;23.260;2023-05-07T13:40:23;3.27;;;2.73;;
20008;SDS011;10165;42.662;23.260;2023-05-07T13:42:51;3.50;;;2.10;;
20008;SDS011;10165;42.662;23.260;2023-05-07T13:45:18;2.90;;;2.60;;
20008;SDS011;10165;42.662;23.260;2023-05-07T13:47:45;3.17;;;2.40;;
20008;SDS011;10165;42.662;23.260;2023-05-07T13:50:12;2.77;;;2.30;;
20008;SDS011;10165;42.662;23.260;2023-05-07T13:52:43;5.23;;;2.43;;
20008;SDS011;10165;42.662;23.260;2023-05-07T13:55:17;3.70;;;2.53;;
20008;SDS011;10165;42.662;23.260;2023-05-07T13:57:44;3.53;;;2.67;;
20008;SDS011;10165;42.662;23.260;2023-05-07T14:00:11;3.30;;;2.60;;
20008;SDS011;10165;42.662;23.260;2023-05-07T14:02:39;3.80;;;3.10;;
20008;SDS011;10165;42.662;23.260;2023-05-07T14:05:06;4.10;;;2.47;;
20008;SDS011;10165;42.662;23.260;2023-05-07T14:07:33;4.63;;;2.43;;
20008;SDS011;10165;42.662;23.260;2023-05-07T14:10:00;4.83;;;2.13;;
20008;SDS011;10165;42.662;23.260;2023-05-07T14:12:27;2.70;;;2.50;;
20008;SDS011;10165;42.662;23.260;2023-05-07T14:14:54;4.33;;;2.63;;
20008;SDS011;10165;42.662;23.260;2023-05-07T14:17:21;4.37;;;2.80;;
20008;SDS011;10165;42.662;23.260;2023-05-07T14:19:49;3.37;;;2.53;;
20008;SDS011;10165;42.662;23.260;2023-05-07T14:22:16;5.30;;;3.13;;
20008;SDS011;10165;42.662;23.260;2023-05-07T14:24:42;5.73;;;2.73;;
20008;SDS011;10165;42.662;23.260;2023-05-07T14:27:13;3.63;;;2.43;;
20008;SDS011;10165;42.662;23.260;2023-05-07T14:29:40;3.57;;;2.70;;
20008;SDS011;10165;42.662;23.260;2023-05-07T14:32:08;6.47;;;2.90;;
20008;SDS011;10165;42.662;23.260;2023-05-07T14:34:35;2.80;;;2.40;;
20008;SDS011;10165;42.662;23.260;2023-05-07T14:37:02;5.47;;;2.80;;
20008;SDS011;10165;42.662;23.260;2023-05-07T14:39:29;3.77;;;2.63;;
20008;SDS011;10165;42.662;23.260;2023-05-07T14:41:56;3.17;;;2.80;;
20008;SDS011;10165;42.662;23.260;2023-05-07T14:44:23;3.63;;;2.20;;
20008;SDS011;10165;42.662;23.260;2023-05-07T14:46:50;2.80;;;2.47;;
20008;SDS011;10165;42.662;23.260;2023-05-07T14:49:17;3.50;;;2.90;;
20008;SDS011;10165;42.662;23.260;2023-05-07T14:51:44;2.80;;;2.40;;
20008;SDS011;10165;42.662;23.260;2023-05-07T14:54:12;3.43;;;2.63;;
20008;SDS011;10165;42.662;23.260;2023-05-07T14:56:39;3.97;;;2.90;;
20008;SDS011;10165;42.662;23.260;2023-05-07T14:59:07;3.27;;;2.70;;